createdAt,value
2023-01-22T00:01:52.847Z,99300.56
2023-01-22T00:04:19.417Z,99317.91
2023-01-22T00:06:45.887Z,99354.19
2023-01-22T00:09:12.734Z,99381.34
2023-01-22T00:11:39.515Z,99357.00
2023-01-22T00:14:06.131Z,99304.66
2023-01-22T00:16:32.630Z,99283.66
2023-01-22T00:18:59.195Z,99301.63
2023-01-22T00:21:27.713Z,99318.84
2023-01-22T00:23:54.199Z,99369.56
2023-01-22T00:26:21.055Z,99382.97
2023-01-22T00:28:48.189Z,99398.97
2023-01-22T00:31:15.841Z,99413.31
2023-01-22T00:33:42.839Z,99413.66
2023-01-22T00:36:10.838Z,99425.72
2023-01-22T00:38:37.456Z,99405.22
2023-01-22T00:41:04.981Z,99379.06
2023-01-22T00:43:34.104Z,99348.56
2023-01-22T00:46:01.066Z,99399.16
2023-01-22T00:48:29.748Z,99399.97
2023-01-22T00:50:58.139Z,99381.34
2023-01-22T00:53:24.645Z,99394.91
2023-01-22T00:56:01.076Z,99404.22
2023-01-22T00:58:28.181Z,99443.22
2023-01-22T01:00:54.676Z,99438.44
2023-01-22T01:03:27.048Z,99381.66
2023-01-22T01:06:01.687Z,99377.44
2023-01-22T01:08:31.478Z,99347.13
2023-01-22T01:11:01.268Z,99367.91
2023-01-22T01:13:28.203Z,99369.91
2023-01-22T01:16:01.741Z,99305.38
2023-01-22T01:18:28.549Z,99338.00
2023-01-22T01:20:55.783Z,99413.63
2023-01-22T01:23:22.981Z,99461.53
2023-01-22T01:25:49.483Z,99448.22
2023-01-22T01:28:17.654Z,99449.13
2023-01-22T01:30:44.821Z,99467.13
2023-01-22T01:33:11.316Z,99487.53
2023-01-22T01:35:40.193Z,99499.63
2023-01-22T01:38:06.752Z,99503.06
2023-01-22T01:40:34.144Z,99496.59
2023-01-22T01:43:00.640Z,99447.13
2023-01-22T01:45:34.433Z,99406.44
2023-01-22T01:48:00.904Z,99422.34
2023-01-22T01:50:27.856Z,99471.59
2023-01-22T01:52:54.613Z,99454.56
2023-01-22T01:55:24.636Z,99427.66
2023-01-22T01:57:52.298Z,99448.25
2023-01-22T02:00:19.150Z,99467.09
2023-01-22T02:02:46.045Z,99423.28
2023-01-22T02:05:12.889Z,99367.44
2023-01-22T02:07:39.479Z,99403.72
2023-01-22T02:10:06.413Z,99451.00
2023-01-22T02:12:34.118Z,99483.88
2023-01-22T02:15:03.322Z,99477.78
2023-01-22T02:17:30.259Z,99440.28
2023-01-22T02:19:56.832Z,99460.13
2023-01-22T02:22:25.572Z,99470.69
2023-01-22T02:24:52.096Z,99395.66
2023-01-22T02:27:18.620Z,99342.78
2023-01-22T02:29:45.954Z,99288.47
2023-01-22T02:32:12.863Z,99281.97
2023-01-22T02:34:39.498Z,99372.97
2023-01-22T02:37:06.330Z,99442.41
2023-01-22T02:39:32.935Z,99492.13
2023-01-22T02:42:00.100Z,99504.72
2023-01-22T02:44:26.600Z,99502.13
2023-01-22T02:46:53.049Z,99416.66
2023-01-22T02:49:19.582Z,99391.06
2023-01-22T02:51:46.132Z,99384.56
2023-01-22T02:54:12.696Z,99386.63
2023-01-22T02:56:39.163Z,99388.75
2023-01-22T02:59:05.702Z,99416.72
2023-01-22T03:01:32.708Z,99437.03
2023-01-22T03:04:01.630Z,99467.00
2023-01-22T03:06:29.524Z,99462.69
2023-01-22T03:08:59.975Z,99460.25
2023-01-22T03:11:28.059Z,99442.75
2023-01-22T03:14:15.265Z,99369.50
2023-01-22T03:17:03.045Z,99351.25
2023-01-22T03:19:48.044Z,99386.59
2023-01-22T03:22:17.767Z,99349.97
2023-01-22T03:24:44.764Z,99320.41
2023-01-22T03:27:13.384Z,99313.00
2023-01-22T03:29:42.881Z,99289.13
2023-01-22T03:32:09.379Z,99317.28
2023-01-22T03:34:37.941Z,99407.28
2023-01-22T03:37:04.972Z,99463.47
2023-01-22T03:39:34.404Z,99474.06
2023-01-22T03:42:01.071Z,99473.44
2023-01-22T03:44:27.644Z,99501.38
2023-01-22T03:46:54.211Z,99515.75
2023-01-22T03:49:20.769Z,99525.88
2023-01-22T03:51:47.274Z,99522.75
2023-01-22T03:54:14.867Z,99492.81
2023-01-22T03:56:42.077Z,99527.28
2023-01-22T03:59:09.369Z,99531.69
2023-01-22T04:01:38.336Z,99529.75
2023-01-22T04:04:04.946Z,99561.78
2023-01-22T04:06:31.460Z,99581.59
2023-01-22T04:08:57.939Z,99594.25
2023-01-22T04:11:24.547Z,99560.75
2023-01-22T04:13:51.070Z,99536.38
2023-01-22T04:16:17.642Z,99538.09
2023-01-22T04:18:44.336Z,99535.56
2023-01-22T04:21:10.915Z,99519.06
2023-01-22T04:23:37.431Z,99533.59
2023-01-22T04:26:03.928Z,99528.38
2023-01-22T04:28:31.119Z,99545.25
2023-01-22T04:30:57.801Z,99537.50
2023-01-22T04:33:24.382Z,99517.75
2023-01-22T04:35:52.126Z,99525.84
2023-01-22T04:38:18.840Z,99506.41
2023-01-22T04:40:45.317Z,99525.56
2023-01-22T04:43:13.952Z,99506.72
2023-01-22T04:45:42.243Z,99487.63
2023-01-22T04:48:09.305Z,99495.03
2023-01-22T04:50:35.908Z,99489.94
2023-01-22T04:53:02.491Z,99492.50
2023-01-22T04:55:29.318Z,99498.66
2023-01-22T04:57:57.111Z,99512.97
2023-01-22T05:00:23.988Z,99505.47
2023-01-22T05:02:50.511Z,99490.94
2023-01-22T05:05:17.240Z,99471.41
2023-01-22T05:07:43.860Z,99472.22
2023-01-22T05:10:10.636Z,99457.09
2023-01-22T05:12:37.080Z,99468.50
2023-01-22T05:15:07.265Z,99501.00
2023-01-22T05:17:38.663Z,99499.66
2023-01-22T05:20:05.445Z,99466.81
2023-01-22T05:22:31.903Z,99546.22
2023-01-22T05:24:58.371Z,99539.16
2023-01-22T05:27:24.889Z,99577.91
2023-01-22T05:29:51.519Z,99582.88
2023-01-22T05:32:18.025Z,99489.13
2023-01-22T05:34:44.535Z,99468.22
2023-01-22T05:37:11.028Z,99465.78
2023-01-22T05:39:39.326Z,99398.94
2023-01-22T05:42:07.612Z,99454.47
2023-01-22T05:44:34.959Z,99466.19
2023-01-22T05:47:01.444Z,99454.22
2023-01-22T05:49:27.920Z,99464.84
2023-01-22T05:51:54.409Z,99514.94
2023-01-22T05:54:22.678Z,99473.66
2023-01-22T05:56:49.120Z,99422.34
2023-01-22T05:59:17.798Z,99467.22
2023-01-22T06:01:44.253Z,99464.59
2023-01-22T06:04:10.714Z,99420.25
2023-01-22T06:06:37.167Z,99354.38
2023-01-22T06:09:03.806Z,99380.59
2023-01-22T06:11:30.371Z,99393.72
2023-01-22T06:13:56.896Z,99361.41
2023-01-22T06:16:23.451Z,99344.25
2023-01-22T06:18:49.900Z,99421.06
2023-01-22T06:21:16.445Z,99434.44
2023-01-22T06:23:42.948Z,99452.00
2023-01-22T06:26:09.458Z,99456.13
2023-01-22T06:28:36.558Z,99488.19
2023-01-22T06:31:05.806Z,99513.47
2023-01-22T06:33:35.909Z,99551.44
2023-01-22T06:36:08.784Z,99561.03
2023-01-22T06:38:36.192Z,99558.72
2023-01-22T06:41:02.763Z,99589.81
2023-01-22T06:43:29.373Z,99602.88
2023-01-22T06:45:56.949Z,99607.69
2023-01-22T06:48:23.454Z,99642.69
2023-01-22T06:50:50.074Z,99659.84
2023-01-22T06:53:16.720Z,99643.91
2023-01-22T06:55:43.210Z,99631.69
2023-01-22T06:58:09.702Z,99651.91
2023-01-22T07:00:36.229Z,99621.97
2023-01-22T07:03:05.266Z,99614.16
2023-01-22T07:05:31.708Z,99618.19
2023-01-22T07:07:58.183Z,99598.88
2023-01-22T07:10:24.641Z,99547.03
2023-01-22T07:12:54.300Z,99501.81
2023-01-22T07:15:20.751Z,99494.84
2023-01-22T07:17:54.048Z,99530.56
2023-01-22T07:20:21.323Z,99554.16
2023-01-22T07:22:47.812Z,99592.03
2023-01-22T07:25:14.412Z,99506.25
2023-01-22T07:27:41.627Z,99510.44
2023-01-22T07:30:09.046Z,99528.53
2023-01-22T07:32:35.767Z,99561.59
2023-01-22T07:35:02.265Z,99624.84
2023-01-22T07:37:28.711Z,99630.81
2023-01-22T07:39:55.225Z,99639.19
2023-01-22T07:42:21.696Z,99607.38
2023-01-22T07:44:48.150Z,99539.88
2023-01-22T07:47:15.487Z,99483.88
2023-01-22T07:49:42.091Z,99468.41
2023-01-22T07:52:08.536Z,99489.31
2023-01-22T07:54:36.495Z,99535.56
2023-01-22T07:57:03.642Z,99548.28
2023-01-22T07:59:30.753Z,99550.47
2023-01-22T08:01:57.364Z,99602.63
2023-01-22T08:04:24.599Z,99585.56
2023-01-22T08:06:51.459Z,99591.00
2023-01-22T08:09:24.698Z,99609.19
2023-01-22T08:11:51.640Z,99614.72
2023-01-22T08:14:18.467Z,99644.19
2023-01-22T08:16:44.976Z,99679.81
2023-01-22T08:19:11.480Z,99660.34
2023-01-22T08:21:37.919Z,99551.28
2023-01-22T08:24:05.217Z,99533.00
2023-01-22T08:26:31.686Z,99569.84
2023-01-22T08:28:58.929Z,99539.78
2023-01-22T08:31:28.256Z,99532.31
2023-01-22T08:33:55.384Z,99565.22
2023-01-22T08:36:22.140Z,99597.41
2023-01-22T08:38:48.633Z,99621.84
2023-01-22T08:41:15.747Z,99638.16
2023-01-22T08:43:43.990Z,99626.22
2023-01-22T08:46:12.571Z,99616.22
2023-01-22T08:48:39.781Z,99570.63
2023-01-22T08:51:06.403Z,99557.28
2023-01-22T08:53:32.934Z,99553.69
2023-01-22T08:55:59.480Z,99528.63
2023-01-22T08:58:27.878Z,99528.94
2023-01-22T09:00:57.360Z,99490.84
2023-01-22T09:03:23.856Z,99470.28
2023-01-22T09:05:51.066Z,99464.22
2023-01-22T09:08:17.576Z,99458.50
2023-01-22T09:10:44.504Z,99444.47
2023-01-22T09:13:10.956Z,99492.09
2023-01-22T09:15:37.785Z,99428.41
2023-01-22T09:18:04.312Z,99396.81
2023-01-22T09:20:30.831Z,99382.19
2023-01-22T09:22:57.324Z,99339.47
2023-01-22T09:25:23.921Z,99368.81
2023-01-22T09:27:50.433Z,99406.50
2023-01-22T09:30:17.269Z,99372.13
2023-01-22T09:32:43.989Z,99363.56
2023-01-22T09:35:10.440Z,99292.22
2023-01-22T09:37:36.934Z,99302.22
2023-01-22T09:40:03.622Z,99360.66
2023-01-22T09:42:32.279Z,99345.19
2023-01-22T09:45:04.626Z,99294.22
2023-01-22T09:47:37.780Z,99224.03
2023-01-22T09:50:16.476Z,99258.28
2023-01-22T09:52:43.272Z,99240.97
2023-01-22T09:55:13.982Z,99197.28
2023-01-22T09:57:44.892Z,99138.56
2023-01-22T10:00:16.957Z,99096.84
2023-01-22T10:02:43.519Z,99091.97
2023-01-22T10:05:28.675Z,99139.25
2023-01-22T10:08:16.683Z,99091.34
2023-01-22T10:10:43.225Z,99037.09
2023-01-22T10:13:18.554Z,98992.34
2023-01-22T10:15:45.182Z,98979.03
2023-01-22T10:18:34.780Z,98955.59
2023-01-22T10:21:03.865Z,98998.81
2023-01-22T10:23:32.034Z,98975.66
2023-01-22T10:26:07.697Z,98943.13
2023-01-22T10:28:35.037Z,98918.81
2023-01-22T10:31:01.645Z,98902.59
2023-01-22T10:33:28.612Z,98909.88
2023-01-22T10:35:56.878Z,98915.56
2023-01-22T10:38:23.603Z,98925.69
2023-01-22T10:40:54.974Z,98931.81
2023-01-22T10:43:21.452Z,98929.78
2023-01-22T10:45:53.162Z,98925.31
2023-01-22T10:48:20.165Z,98916.78
2023-01-22T10:50:57.513Z,98950.22
2023-01-22T10:53:29.152Z,98934.03
2023-01-22T10:55:58.175Z,98939.91
2023-01-22T10:58:27.861Z,98922.03
2023-01-22T11:01:02.449Z,98908.63
2023-01-22T11:03:34.100Z,98878.94
2023-01-22T11:06:04.498Z,98897.66
2023-01-22T11:08:39.783Z,98900.06
2023-01-22T11:11:09.290Z,98895.59
2023-01-22T11:13:40.648Z,98874.44
2023-01-22T11:16:18.515Z,98899.25
2023-01-22T11:18:56.364Z,98890.66
2023-01-22T11:21:26.383Z,98904.50
2023-01-22T11:23:59.175Z,98877.00
2023-01-22T11:26:37.900Z,98880.50
2023-01-22T11:29:11.383Z,98869.84
2023-01-22T11:31:50.262Z,98883.75
2023-01-22T11:34:35.165Z,98864.94
2023-01-22T11:37:12.972Z,98869.44
2023-01-22T11:39:48.300Z,98865.53
2023-01-22T11:42:26.555Z,98877.53
2023-01-22T11:45:02.636Z,98877.88
2023-01-22T11:47:49.489Z,98890.66
2023-01-22T11:50:37.506Z,98888.59
2023-01-22T11:53:25.225Z,98908.38
2023-01-22T11:56:10.524Z,98909.97
2023-01-22T11:58:53.102Z,98906.31
2023-01-22T12:01:31.645Z,98912.44
2023-01-22T12:04:33.712Z,98947.69
2023-01-22T12:07:02.867Z,98940.56
2023-01-22T12:09:29.316Z,98887.47
2023-01-22T12:12:04.695Z,98912.78
2023-01-22T12:14:34.171Z,98924.34
2023-01-22T12:17:03.510Z,98911.72
2023-01-22T12:19:48.894Z,98872.56
2023-01-22T12:22:34.165Z,98840.09
2023-01-22T12:25:12.484Z,98841.06
2023-01-22T12:27:42.695Z,98839.63
2023-01-22T12:30:24.704Z,98831.22
2023-01-22T12:32:54.769Z,98835.69
2023-01-22T12:35:22.070Z,98850.00
2023-01-22T12:37:48.535Z,98878.13
2023-01-22T12:40:21.457Z,98903.88
2023-01-22T12:42:54.081Z,98916.09
2023-01-22T12:45:27.689Z,98899.84
2023-01-22T12:48:07.625Z,98900.22
2023-01-22T12:50:34.074Z,98912.88
2023-01-22T12:53:02.057Z,98922.28
2023-01-22T12:55:30.948Z,98927.59
2023-01-22T12:57:57.815Z,98907.69
2023-01-22T13:00:41.966Z,98888.50
2023-01-22T13:03:31.114Z,98886.03
2023-01-22T13:05:58.724Z,98867.09
2023-01-22T13:08:36.420Z,98859.75
2023-01-22T13:11:05.321Z,98888.56
2023-01-22T13:13:45.379Z,98882.38
2023-01-22T13:16:32.252Z,98852.66
2023-01-22T13:19:00.676Z,98830.44
2023-01-22T13:21:31.590Z,98811.69
2023-01-22T13:24:00.843Z,98854.41
2023-01-22T13:26:28.702Z,98893.16
2023-01-22T13:29:00.861Z,98899.19
2023-01-22T13:31:29.712Z,98910.00
2023-01-22T13:34:09.030Z,98890.19
2023-01-22T13:36:39.736Z,98875.16
2023-01-22T13:39:06.180Z,98875.94
2023-01-22T13:41:38.840Z,98876.34
2023-01-22T13:44:06.836Z,98858.84
2023-01-22T13:46:36.715Z,98883.34
2023-01-22T13:49:19.139Z,98901.25
2023-01-22T13:51:46.031Z,98923.84
2023-01-22T13:54:21.733Z,98931.75
2023-01-22T13:56:48.313Z,98938.44
2023-01-22T13:59:25.269Z,98922.00
2023-01-22T14:01:53.997Z,98919.53
2023-01-22T14:04:30.126Z,98904.47
2023-01-22T14:06:56.606Z,98904.06
2023-01-22T14:09:26.837Z,98942.69
2023-01-22T14:11:53.381Z,98957.72
2023-01-22T14:14:20.174Z,98964.63
2023-01-22T14:16:47.062Z,98985.09
2023-01-22T14:19:13.891Z,98974.97
2023-01-22T14:21:40.606Z,98942.66
2023-01-22T14:24:07.542Z,98968.50
2023-01-22T14:26:34.546Z,98957.13
2023-01-22T14:29:02.021Z,98951.25
2023-01-22T14:31:28.578Z,98928.91
2023-01-22T14:33:55.045Z,98928.09
2023-01-22T14:36:23.818Z,99020.03
2023-01-22T14:38:53.513Z,99034.50
2023-01-22T14:41:20.060Z,99057.88
2023-01-22T14:43:46.579Z,99067.50
2023-01-22T14:46:13.059Z,99026.31
2023-01-22T14:48:39.720Z,98979.09
2023-01-22T14:51:10.257Z,98951.00
2023-01-22T14:53:36.957Z,98957.25
2023-01-22T14:56:03.718Z,98994.75
2023-01-22T14:58:30.338Z,98984.72
2023-01-22T15:00:56.870Z,98945.72
2023-01-22T15:03:25.622Z,98969.94
2023-01-22T15:05:52.546Z,99002.81
2023-01-22T15:08:19.016Z,99063.13
2023-01-22T15:10:45.494Z,99085.59
2023-01-22T15:13:11.965Z,99090.72
2023-01-22T15:15:38.455Z,99079.09
2023-01-22T15:18:04.967Z,99048.47
2023-01-22T15:20:31.422Z,99051.81
2023-01-22T15:22:57.931Z,99076.75
2023-01-22T15:25:24.460Z,99093.84
2023-01-22T15:27:51.785Z,99098.97
2023-01-22T15:30:18.903Z,99098.97
2023-01-22T15:32:45.571Z,99106.94
2023-01-22T15:35:12.164Z,99080.88
2023-01-22T15:37:38.722Z,99083.19
2023-01-22T15:40:05.593Z,99046.31
2023-01-22T15:42:32.444Z,99077.06
2023-01-22T15:44:58.981Z,99087.28
2023-01-22T15:47:25.526Z,99075.44
2023-01-22T15:49:52.007Z,99093.69
2023-01-22T15:52:19.015Z,99125.09
2023-01-22T15:54:46.369Z,99138.59
2023-01-22T15:57:13.994Z,99173.69
2023-01-22T15:59:41.501Z,99194.41
2023-01-22T16:02:11.197Z,99186.00
2023-01-22T16:04:37.688Z,99128.38
2023-01-22T16:07:05.175Z,99090.81
2023-01-22T16:09:31.776Z,99046.56
2023-01-22T16:11:58.734Z,99040.94
2023-01-22T16:14:25.378Z,99087.06
2023-01-22T16:16:51.949Z,99143.38
2023-01-22T16:19:18.427Z,99199.19
2023-01-22T16:21:46.590Z,99237.59
2023-01-22T16:24:13.074Z,99263.56
2023-01-22T16:26:39.600Z,99292.00
2023-01-22T16:29:09.145Z,99288.88
2023-01-22T16:31:38.118Z,99278.81
2023-01-22T16:34:09.901Z,99293.09
2023-01-22T16:36:39.423Z,99245.53
2023-01-22T16:39:05.981Z,99274.38
2023-01-22T16:41:35.965Z,99284.25
2023-01-22T16:44:06.896Z,99282.75
2023-01-22T16:46:34.147Z,99308.22
2023-01-22T16:49:02.325Z,99317.06
2023-01-22T16:51:33.264Z,99322.94
2023-01-22T16:53:59.760Z,99322.50
2023-01-22T16:56:26.280Z,99354.13
2023-01-22T16:58:52.997Z,99366.06
2023-01-22T17:01:19.641Z,99368.69
2023-01-22T17:03:46.230Z,99374.28
2023-01-22T17:06:32.815Z,99386.88
2023-01-22T17:09:00.102Z,99356.31
2023-01-22T17:11:26.789Z,99303.66
2023-01-22T17:13:54.197Z,99278.72
2023-01-22T17:16:20.729Z,99296.25
2023-01-22T17:18:47.273Z,99333.66
2023-01-22T17:21:15.821Z,99331.88
2023-01-22T17:23:42.439Z,99341.59
2023-01-22T17:26:13.363Z,99336.69
2023-01-22T17:28:41.919Z,99357.00
2023-01-22T17:31:09.749Z,99365.25
2023-01-22T17:33:36.765Z,99389.16
2023-01-22T17:36:04.264Z,99391.13
2023-01-22T17:38:33.141Z,99406.19
2023-01-22T17:41:07.660Z,99415.00
2023-01-22T17:43:34.887Z,99424.50
2023-01-22T17:46:01.641Z,99410.06
2023-01-22T17:48:28.338Z,99394.59
2023-01-22T17:50:57.224Z,99389.38
2023-01-22T17:53:23.715Z,99414.63
2023-01-22T17:55:50.255Z,99428.41
2023-01-22T17:58:18.060Z,99426.09
2023-01-22T18:00:45.352Z,99460.16
2023-01-22T18:03:12.164Z,99488.22
2023-01-22T18:05:38.607Z,99453.75
2023-01-22T18:08:05.188Z,99459.16
2023-01-22T18:10:32.345Z,99481.72
2023-01-22T18:12:59.684Z,99510.72
2023-01-22T18:15:26.162Z,99504.50
2023-01-22T18:17:52.694Z,99427.75
2023-01-22T18:20:19.161Z,99427.78
2023-01-22T18:22:45.692Z,99487.28
2023-01-22T18:25:12.161Z,99533.00
2023-01-22T18:27:39.285Z,99497.03
2023-01-22T18:30:07.099Z,99455.16
2023-01-22T18:32:35.811Z,99498.91
2023-01-22T18:35:03.006Z,99425.91
2023-01-22T18:37:29.627Z,99413.72
2023-01-22T18:39:56.145Z,99418.59
2023-01-22T18:42:22.681Z,99397.84
2023-01-22T18:44:49.158Z,99471.78
2023-01-22T18:47:15.627Z,99536.66
2023-01-22T18:49:42.212Z,99528.00
2023-01-22T18:52:08.679Z,99550.31
2023-01-22T18:54:37.347Z,99548.13
2023-01-22T18:57:03.870Z,99478.22
2023-01-22T18:59:30.363Z,99450.47
2023-01-22T19:01:57.534Z,99455.00
2023-01-22T19:04:24.110Z,99459.22
2023-01-22T19:06:53.730Z,99493.03
2023-01-22T19:09:20.808Z,99454.28
2023-01-22T19:11:48.575Z,99495.13
2023-01-22T19:14:19.430Z,99501.06
2023-01-22T19:16:49.703Z,99509.66
2023-01-22T19:19:18.383Z,99504.78
2023-01-22T19:21:48.306Z,99516.03
2023-01-22T19:24:16.407Z,99518.34
2023-01-22T19:26:43.050Z,99519.31
2023-01-22T19:29:12.511Z,99491.03
2023-01-22T19:31:40.852Z,99447.75
2023-01-22T19:34:09.047Z,99421.06
2023-01-22T19:36:38.339Z,99365.97
2023-01-22T19:39:07.364Z,99382.25
2023-01-22T19:41:33.956Z,99422.34
2023-01-22T19:44:01.429Z,99409.38
2023-01-22T19:46:28.032Z,99475.91
2023-01-22T19:48:55.033Z,99526.31
2023-01-22T19:51:22.311Z,99538.69
2023-01-22T19:53:49.111Z,99531.81
2023-01-22T19:56:18.382Z,99536.75
2023-01-22T19:58:45.555Z,99489.13
2023-01-22T20:01:12.523Z,99432.56
2023-01-22T20:03:39.259Z,99423.44
2023-01-22T20:06:06.437Z,99488.81
2023-01-22T20:08:33.150Z,99490.25
2023-01-22T20:11:00.082Z,99449.91
2023-01-22T20:13:26.587Z,99409.13
2023-01-22T20:15:54.045Z,99414.84
2023-01-22T20:18:20.977Z,99453.19
2023-01-22T20:20:57.917Z,99462.78
2023-01-22T20:23:25.017Z,99460.31
2023-01-22T20:25:51.911Z,99443.09
2023-01-22T20:28:19.259Z,99418.63
2023-01-22T20:30:55.941Z,99425.47
2023-01-22T20:33:22.400Z,99457.13
2023-01-22T20:35:48.888Z,99466.25
2023-01-22T20:38:15.781Z,99484.50
2023-01-22T20:40:46.095Z,99506.00
2023-01-22T20:43:14.097Z,99512.63
2023-01-22T20:45:40.884Z,99509.41
2023-01-22T20:48:07.645Z,99500.75
2023-01-22T20:50:34.146Z,99498.81
2023-01-22T20:53:00.597Z,99487.22
2023-01-22T20:55:27.071Z,99487.41
2023-01-22T20:57:53.568Z,99487.59
2023-01-22T21:00:20.120Z,99495.88
2023-01-22T21:02:49.075Z,99518.38
2023-01-22T21:05:15.523Z,99505.69
2023-01-22T21:07:42.013Z,99518.06
2023-01-22T21:10:08.859Z,99540.22
2023-01-22T21:12:35.361Z,99544.72
2023-01-22T21:15:03.058Z,99547.31
2023-01-22T21:17:31.218Z,99553.22
2023-01-22T21:19:58.137Z,99568.97
2023-01-22T21:22:24.600Z,99575.34
2023-01-22T21:24:51.147Z,99577.13
2023-01-22T21:27:18.313Z,99558.13
2023-01-22T21:29:44.794Z,99572.75
2023-01-22T21:32:11.297Z,99588.44
2023-01-22T21:34:37.919Z,99567.63
2023-01-22T21:37:04.507Z,99554.19
2023-01-22T21:39:31.026Z,99557.09
2023-01-22T21:42:16.277Z,99558.59
2023-01-22T21:45:02.014Z,99586.19
2023-01-22T21:47:28.599Z,99601.34
2023-01-22T21:49:55.612Z,99608.34
2023-01-22T21:52:22.053Z,99614.13
2023-01-22T21:54:48.544Z,99634.25
2023-01-22T21:57:16.206Z,99604.53
2023-01-22T21:59:43.714Z,99562.84
2023-01-22T22:02:14.602Z,99544.00
2023-01-22T22:04:43.102Z,99536.81
2023-01-22T22:07:11.459Z,99565.47
2023-01-22T22:09:39.798Z,99550.97
2023-01-22T22:12:06.315Z,99547.50
2023-01-22T22:14:35.083Z,99563.97
2023-01-22T22:17:01.681Z,99562.84
2023-01-22T22:19:29.008Z,99589.78
2023-01-22T22:21:55.640Z,99603.97
2023-01-22T22:24:23.037Z,99608.47
2023-01-22T22:26:51.469Z,99617.25
2023-01-22T22:29:17.923Z,99604.56
2023-01-22T22:31:44.439Z,99589.78
2023-01-22T22:34:10.980Z,99565.59
2023-01-22T22:36:37.431Z,99547.84
2023-01-22T22:39:06.582Z,99547.00
2023-01-22T22:41:34.208Z,99535.44
2023-01-22T22:44:00.664Z,99503.81
2023-01-22T22:46:30.995Z,99508.84
2023-01-22T22:48:58.354Z,99492.69
2023-01-22T22:51:32.689Z,99476.09
2023-01-22T22:54:00.904Z,99494.50
2023-01-22T22:56:27.946Z,99506.69
2023-01-22T22:58:54.972Z,99556.50
2023-01-22T23:01:23.625Z,99574.19
2023-01-22T23:03:50.445Z,99557.41
2023-01-22T23:06:19.601Z,99529.75
2023-01-22T23:08:48.355Z,99581.22
2023-01-22T23:11:15.937Z,99691.44
2023-01-22T23:13:46.339Z,99730.81
2023-01-22T23:16:14.600Z,99695.19
2023-01-22T23:18:41.227Z,99612.06
2023-01-22T23:21:14.181Z,99633.50
2023-01-22T23:23:41.170Z,99624.41
2023-01-22T23:26:19.781Z,99667.81
2023-01-22T23:28:47.530Z,99678.38
2023-01-22T23:31:14.968Z,99671.41
2023-01-22T23:33:41.579Z,99607.13
2023-01-22T23:36:09.828Z,99551.28
2023-01-22T23:38:38.579Z,99667.13
2023-01-22T23:41:06.470Z,99684.97
2023-01-22T23:43:33.684Z,99637.75
2023-01-22T23:46:00.625Z,99559.41
2023-01-22T23:48:27.658Z,99525.81
2023-01-22T23:50:54.263Z,99624.25
2023-01-22T23:53:21.919Z,99654.50
2023-01-22T23:55:48.483Z,99644.34
2023-01-22T23:58:16.908Z,99633.38
